sensor_id;sensor_type;location;lat;lon;timestamp;pressure;altitude;pressure_sealevel;temperature;humidity
12536;BME280;6334;48.696;2.114;2023-03-16T00:00:15;99931.17;;;8.33;57.97
12536;BME280;6334;48.696;2.114;2023-03-16T00:02:45;99934.91;;;8.29;58.42
12536;BME280;6334;48.696;2.114;2023-03-16T00:05:16;99923.78;;;8.38;58.37
12536;BME280;6334;48.696;2.114;2023-03-16T00:07:46;99927.48;;;8.02;59.42
12536;BME280;6334;48.696;2.114;2023-03-16T00:10:17;99920.14;;;7.98;58.68
12536;BME280;6334;48.696;2.114;2023-03-16T00:12:47;99922.01;;;7.81;60.29
12536;BME280;6334;48.696;2.114;2023-03-16T00:15:18;99920.16;;;7.89;60.05
12536;BME280;6334;48.696;2.114;2023-03-16T00:17:48;99923.77;;;8.02;59.81
12536;BME280;6334;48.696;2.114;2023-03-16T00:20:18;99927.33;;;8.03;58.97
12536;BME280;6334;48.696;2.114;2023-03-16T00:22:49;99929.48;;;8.02;59.59
12536;BME280;6334;48.696;2.114;2023-03-16T00:25:19;99930.86;;;8.08;59.64
12536;BME280;6334;48.696;2.114;2023-03-16T00:27:50;99929.33;;;8.00;60.06
12536;BME280;6334;48.696;2.114;2023-03-16T00:30:21;99919.35;;;7.75;59.81
12536;BME280;6334;48.696;2.114;2023-03-16T00:32:51;99923.27;;;7.71;60.19
12536;BME280;6334;48.696;2.114;2023-03-16T00:35:22;99883.03;;;7.27;60.93
12536;BME280;6334;48.696;2.114;2023-03-16T00:37:52;99915.59;;;7.61;60.52
12536;BME280;6334;48.696;2.114;2023-03-16T00:40:23;99899.70;;;7.82;58.83
12536;BME280;6334;48.696;2.114;2023-03-16T00:42:53;99907.45;;;7.72;60.68
12536;BME280;6334;48.696;2.114;2023-03-16T00:45:23;99919.95;;;7.73;60.13
12536;BME280;6334;48.696;2.114;2023-03-16T00:47:55;99912.94;;;7.95;60.28
12536;BME280;6334;48.696;2.114;2023-03-16T00:50:26;99914.97;;;7.73;60.02
12536;BME280;6334;48.696;2.114;2023-03-16T00:52:56;99907.90;;;7.48;61.00
12536;BME280;6334;48.696;2.114;2023-03-16T00:55:27;99898.30;;;7.54;60.80
12536;BME280;6334;48.696;2.114;2023-03-16T00:57:58;99872.42;;;7.42;61.06
12536;BME280;6334;48.696;2.114;2023-03-16T01:00:29;99892.11;;;7.38;60.64
12536;BME280;6334;48.696;2.114;2023-03-16T01:02:59;99887.02;;;7.15;61.88
12536;BME280;6334;48.696;2.114;2023-03-16T01:05:30;99892.19;;;7.30;61.22
12536;BME280;6334;48.696;2.114;2023-03-16T01:08:00;99891.05;;;7.66;60.77
12536;BME280;6334;48.696;2.114;2023-03-16T01:10:31;99880.17;;;7.47;61.44
12536;BME280;6334;48.696;2.114;2023-03-16T01:13:01;99880.23;;;7.53;61.70
12536;BME280;6334;48.696;2.114;2023-03-16T01:15:32;99878.61;;;7.41;61.16
12536;BME280;6334;48.696;2.114;2023-03-16T01:18:02;99872.86;;;7.62;61.23
12536;BME280;6334;48.696;2.114;2023-03-16T01:20:32;99862.67;;;7.61;60.66
12536;BME280;6334;48.696;2.114;2023-03-16T01:23:03;99868.02;;;7.48;61.42
12536;BME280;6334;48.696;2.114;2023-03-16T01:25:33;99868.70;;;7.38;61.39
12536;BME280;6334;48.696;2.114;2023-03-16T01:28:04;99849.92;;;7.60;60.88
12536;BME280;6334;48.696;2.114;2023-03-16T01:30:34;99852.33;;;7.18;62.60
12536;BME280;6334;48.696;2.114;2023-03-16T01:33:05;99828.61;;;7.48;61.26
12536;BME280;6334;48.696;2.114;2023-03-16T01:35:35;99834.63;;;7.20;62.31
12536;BME280;6334;48.696;2.114;2023-03-16T01:38:06;99839.56;;;7.38;62.23
12536;BME280;6334;48.696;2.114;2023-03-16T01:40:36;99832.38;;;7.31;62.16
12536;BME280;6334;48.696;2.114;2023-03-16T01:43:09;99835.30;;;7.16;62.78
12536;BME280;6334;48.696;2.114;2023-03-16T01:53:47;99829.58;;;7.53;61.88
12536;BME280;6334;48.696;2.114;2023-03-16T01:56:20;99822.62;;;7.27;62.19
12536;BME280;6334;48.696;2.114;2023-03-16T01:58:48;99823.40;;;7.53;61.80
12536;BME280;6334;48.696;2.114;2023-03-16T02:01:18;99818.45;;;7.68;60.99
12536;BME280;6334;48.696;2.114;2023-03-16T02:03:49;99819.97;;;7.32;61.17
12536;BME280;6334;48.696;2.114;2023-03-16T02:06:20;99819.81;;;7.53;60.70
12536;BME280;6334;48.696;2.114;2023-03-16T02:08:50;99824.23;;;7.47;61.21
12536;BME280;6334;48.696;2.114;2023-03-16T02:11:20;99798.92;;;7.42;60.02
12536;BME280;6334;48.696;2.114;2023-03-16T02:13:51;99814.29;;;7.50;60.14
12536;BME280;6334;48.696;2.114;2023-03-16T02:16:21;99814.47;;;7.51;60.07
12536;BME280;6334;48.696;2.114;2023-03-16T02:18:52;99817.19;;;7.69;59.80
12536;BME280;6334;48.696;2.114;2023-03-16T02:23:59;99820.59;;;7.43;60.32
12536;BME280;6334;48.696;2.114;2023-03-16T02:26:33;99812.30;;;7.50;59.92
12536;BME280;6334;48.696;2.114;2023-03-16T02:29:22;99806.23;;;7.54;59.72
12536;BME280;6334;48.696;2.114;2023-03-16T02:31:49;99801.39;;;7.65;60.13
12536;BME280;6334;48.696;2.114;2023-03-16T02:34:19;99794.38;;;7.40;60.84
12536;BME280;6334;48.696;2.114;2023-03-16T02:36:50;99786.80;;;7.19;61.13
12536;BME280;6334;48.696;2.114;2023-03-16T02:39:20;99784.95;;;7.38;60.55
12536;BME280;6334;48.696;2.114;2023-03-16T02:41:51;99778.39;;;7.12;60.34
12536;BME280;6334;48.696;2.114;2023-03-16T02:44:28;99764.73;;;7.19;60.80
12536;BME280;6334;48.696;2.114;2023-03-16T02:46:58;99768.80;;;7.40;60.37
12536;BME280;6334;48.696;2.114;2023-03-16T02:49:39;99766.53;;;7.46;60.63
12536;BME280;6334;48.696;2.114;2023-03-16T02:52:07;99763.27;;;7.40;59.57
12536;BME280;6334;48.696;2.114;2023-03-16T02:54:37;99762.73;;;7.25;59.32
12536;BME280;6334;48.696;2.114;2023-03-16T02:57:08;99764.23;;;7.09;60.32
12536;BME280;6334;48.696;2.114;2023-03-16T02:59:38;99763.05;;;7.24;60.23
12536;BME280;6334;48.696;2.114;2023-03-16T03:02:09;99757.78;;;7.16;59.56
12536;BME280;6334;48.696;2.114;2023-03-16T03:04:39;99753.27;;;6.96;60.05
12536;BME280;6334;48.696;2.114;2023-03-16T03:07:09;99759.84;;;7.17;59.91
12536;BME280;6334;48.696;2.114;2023-03-16T03:09:40;99736.86;;;7.14;59.73
12536;BME280;6334;48.696;2.114;2023-03-16T03:12:11;99728.80;;;7.24;58.87
12536;BME280;6334;48.696;2.114;2023-03-16T03:14:41;99746.80;;;7.10;59.80
12536;BME280;6334;48.696;2.114;2023-03-16T03:17:11;99740.31;;;6.84;60.00
12536;BME280;6334;48.696;2.114;2023-03-16T03:19:42;99745.88;;;7.11;59.59
12536;BME280;6334;48.696;2.114;2023-03-16T03:22:12;99747.45;;;6.65;61.04
12536;BME280;6334;48.696;2.114;2023-03-16T03:24:43;99730.14;;;6.81;59.88
12536;BME280;6334;48.696;2.114;2023-03-16T03:27:13;99755.13;;;6.85;60.86
12536;BME280;6334;48.696;2.114;2023-03-16T03:29:43;99750.23;;;6.85;61.03
12536;BME280;6334;48.696;2.114;2023-03-16T03:32:14;99748.99;;;7.25;60.77
12536;BME280;6334;48.696;2.114;2023-03-16T03:34:44;99748.69;;;7.12;59.61
12536;BME280;6334;48.696;2.114;2023-03-16T03:37:15;99746.42;;;6.98;59.54
12536;BME280;6334;48.696;2.114;2023-03-16T03:39:45;99737.57;;;6.88;60.16
12536;BME280;6334;48.696;2.114;2023-03-16T03:42:16;99738.72;;;6.87;59.35
12536;BME280;6334;48.696;2.114;2023-03-16T03:44:46;99736.09;;;6.79;60.22
12536;BME280;6334;48.696;2.114;2023-03-16T03:47:17;99732.92;;;6.94;59.99
12536;BME280;6334;48.696;2.114;2023-03-16T03:49:47;99729.68;;;7.05;59.95
12536;BME280;6334;48.696;2.114;2023-03-16T03:52:18;99731.20;;;6.90;58.35
12536;BME280;6334;48.696;2.114;2023-03-16T03:54:49;99725.96;;;7.03;59.03
12536;BME280;6334;48.696;2.114;2023-03-16T03:57:20;99729.17;;;6.83;59.44
12536;BME280;6334;48.696;2.114;2023-03-16T03:59:50;99721.35;;;6.96;59.28
12536;BME280;6334;48.696;2.114;2023-03-16T04:02:21;99719.77;;;6.52;60.12
12536;BME280;6334;48.696;2.114;2023-03-16T04:04:51;99707.91;;;6.83;59.22
12536;BME280;6334;48.696;2.114;2023-03-16T04:07:22;99702.41;;;6.61;60.02
12536;BME280;6334;48.696;2.114;2023-03-16T04:09:52;99707.91;;;6.91;59.04
12536;BME280;6334;48.696;2.114;2023-03-16T04:12:23;99712.13;;;6.78;59.45
12536;BME280;6334;48.696;2.114;2023-03-16T04:14:54;99696.23;;;6.83;58.63
12536;BME280;6334;48.696;2.114;2023-03-16T04:17:25;99710.86;;;6.92;58.84
12536;BME280;6334;48.696;2.114;2023-03-16T04:19:55;99699.80;;;6.80;58.09
12536;BME280;6334;48.696;2.114;2023-03-16T04:22:26;99705.27;;;6.81;59.29
12536;BME280;6334;48.696;2.114;2023-03-16T04:24:56;99702.70;;;6.76;59.23
12536;BME280;6334;48.696;2.114;2023-03-16T04:27:27;99698.87;;;6.87;58.59
12536;BME280;6334;48.696;2.114;2023-03-16T04:29:57;99696.70;;;6.60;58.51
12536;BME280;6334;48.696;2.114;2023-03-16T04:32:28;99682.89;;;6.69;57.99
12536;BME280;6334;48.696;2.114;2023-03-16T04:34:58;99683.48;;;6.68;58.74
12536;BME280;6334;48.696;2.114;2023-03-16T04:37:28;99681.06;;;6.76;58.01
12536;BME280;6334;48.696;2.114;2023-03-16T04:39:59;99676.05;;;6.54;58.58
12536;BME280;6334;48.696;2.114;2023-03-16T04:42:45;99672.83;;;6.61;58.08
12536;BME280;6334;48.696;2.114;2023-03-16T04:45:15;99666.14;;;6.48;58.34
12536;BME280;6334;48.696;2.114;2023-03-16T04:47:45;99662.06;;;6.68;58.18
12536;BME280;6334;48.696;2.114;2023-03-16T04:50:17;99662.06;;;6.72;57.70
12536;BME280;6334;48.696;2.114;2023-03-16T04:52:47;99665.72;;;6.42;58.84
12536;BME280;6334;48.696;2.114;2023-03-16T04:55:18;99666.35;;;6.62;57.97
12536;BME280;6334;48.696;2.114;2023-03-16T04:57:48;99659.52;;;6.46;58.42
12536;BME280;6334;48.696;2.114;2023-03-16T05:00:19;99664.64;;;6.65;57.70
12536;BME280;6334;48.696;2.114;2023-03-16T05:02:49;99667.20;;;6.42;58.71
12536;BME280;6334;48.696;2.114;2023-03-16T05:05:20;99660.80;;;6.31;59.01
12536;BME280;6334;48.696;2.114;2023-03-16T05:07:50;99658.58;;;6.66;58.06
12536;BME280;6334;48.696;2.114;2023-03-16T05:10:20;99655.02;;;6.79;57.88
12536;BME280;6334;48.696;2.114;2023-03-16T05:12:51;99650.31;;;6.73;57.79
12536;BME280;6334;48.696;2.114;2023-03-16T05:15:21;99650.95;;;6.34;59.14
12536;BME280;6334;48.696;2.114;2023-03-16T05:17:53;99651.09;;;6.49;58.43
12536;BME280;6334;48.696;2.114;2023-03-16T05:20:22;99650.35;;;6.47;57.85
12536;BME280;6334;48.696;2.114;2023-03-16T05:22:53;99652.01;;;6.54;57.87
12536;BME280;6334;48.696;2.114;2023-03-16T05:25:25;99648.39;;;6.37;58.52
12536;BME280;6334;48.696;2.114;2023-03-16T05:27:56;99649.61;;;6.47;58.48
12536;BME280;6334;48.696;2.114;2023-03-16T05:30:26;99646.60;;;6.62;58.33
12536;BME280;6334;48.696;2.114;2023-03-16T05:32:57;99647.25;;;6.71;58.02
12536;BME280;6334;48.696;2.114;2023-03-16T05:35:27;99643.98;;;6.59;58.06
12536;BME280;6334;48.696;2.114;2023-03-16T05:37:58;99647.34;;;6.67;58.72
12536;BME280;6334;48.696;2.114;2023-03-16T05:40:28;99644.34;;;6.41;58.50
12536;BME280;6334;48.696;2.114;2023-03-16T05:42:59;99643.67;;;6.37;58.87
12536;BME280;6334;48.696;2.114;2023-03-16T05:45:29;99641.69;;;6.29;59.48
12536;BME280;6334;48.696;2.114;2023-03-16T05:48:00;99646.37;;;6.66;58.54
12536;BME280;6334;48.696;2.114;2023-03-16T05:50:30;99645.00;;;6.39;59.26
12536;BME280;6334;48.696;2.114;2023-03-16T05:53:01;99639.44;;;6.49;58.42
12536;BME280;6334;48.696;2.114;2023-03-16T05:55:31;99640.20;;;5.92;60.42
12536;BME280;6334;48.696;2.114;2023-03-16T05:58:02;99637.98;;;6.46;59.15
12536;BME280;6334;48.696;2.114;2023-03-16T06:00:32;99631.86;;;6.32;59.10
12536;BME280;6334;48.696;2.114;2023-03-16T06:03:02;99624.60;;;6.26;59.08
12536;BME280;6334;48.696;2.114;2023-03-16T06:05:33;99628.71;;;6.46;58.37
12536;BME280;6334;48.696;2.114;2023-03-16T06:08:03;99631.49;;;5.99;59.79
12536;BME280;6334;48.696;2.114;2023-03-16T06:10:34;99636.24;;;6.35;58.98
12536;BME280;6334;48.696;2.114;2023-03-16T06:13:04;99635.35;;;6.20;59.35
12536;BME280;6334;48.696;2.114;2023-03-16T06:15:35;99635.75;;;6.21;59.41
12536;BME280;6334;48.696;2.114;2023-03-16T06:18:05;99642.17;;;6.40;58.72
12536;BME280;6334;48.696;2.114;2023-03-16T06:20:36;99644.34;;;6.44;59.08
12536;BME280;6334;48.696;2.114;2023-03-16T06:23:06;99641.70;;;6.23;58.96
12536;BME280;6334;48.696;2.114;2023-03-16T06:25:36;99634.11;;;6.33;58.91
12536;BME280;6334;48.696;2.114;2023-03-16T06:28:08;99639.02;;;6.51;58.39
12536;BME280;6334;48.696;2.114;2023-03-16T06:30:39;99638.63;;;6.39;58.39
12536;BME280;6334;48.696;2.114;2023-03-16T06:33:09;99634.87;;;6.60;57.83
12536;BME280;6334;48.696;2.114;2023-03-16T06:35:39;99637.31;;;6.37;58.37
12536;BME280;6334;48.696;2.114;2023-03-16T06:38:10;99637.96;;;6.43;57.83
12536;BME280;6334;48.696;2.114;2023-03-16T06:40:40;99646.66;;;6.35;58.73
12536;BME280;6334;48.696;2.114;2023-03-16T06:43:11;99644.00;;;6.48;57.13
12536;BME280;6334;48.696;2.114;2023-03-16T06:45:41;99639.13;;;6.37;57.68
12536;BME280;6334;48.696;2.114;2023-03-16T06:48:12;99638.58;;;6.67;58.42
12536;BME280;6334;48.696;2.114;2023-03-16T06:50:43;99632.75;;;6.50;58.43
12536;BME280;6334;48.696;2.114;2023-03-16T06:53:13;99629.11;;;6.59;57.95
12536;BME280;6334;48.696;2.114;2023-03-16T06:55:43;99627.52;;;6.88;57.90
12536;BME280;6334;48.696;2.114;2023-03-16T06:58:14;99632.75;;;6.47;59.50
12536;BME280;6334;48.696;2.114;2023-03-16T07:00:44;99633.70;;;6.66;58.15
12536;BME280;6334;48.696;2.114;2023-03-16T07:03:14;99629.89;;;7.48;72.03
12536;BME280;6334;48.696;2.114;2023-03-16T07:05:46;99629.55;;;6.99;57.93
12536;BME280;6334;48.696;2.114;2023-03-16T07:08:15;99633.26;;;6.83;57.96
12536;BME280;6334;48.696;2.114;2023-03-16T07:10:46;99627.92;;;6.93;56.98
12536;BME280;6334;48.696;2.114;2023-03-16T07:13:17;99609.02;;;6.80;57.58
12536;BME280;6334;48.696;2.114;2023-03-16T07:15:50;99621.00;;;6.86;57.05
12536;BME280;6334;48.696;2.114;2023-03-16T07:18:19;99621.47;;;7.15;56.86
12536;BME280;6334;48.696;2.114;2023-03-16T07:20:49;99618.20;;;7.01;56.60
12536;BME280;6334;48.696;2.114;2023-03-16T07:23:19;99605.02;;;6.93;57.79
12536;BME280;6334;48.696;2.114;2023-03-16T07:25:50;99605.26;;;7.26;56.45
12536;BME280;6334;48.696;2.114;2023-03-16T07:28:20;99607.61;;;7.00;56.61
12536;BME280;6334;48.696;2.114;2023-03-16T07:30:51;99603.19;;;7.14;56.18
12536;BME280;6334;48.696;2.114;2023-03-16T07:33:21;99608.86;;;7.17;56.49
12536;BME280;6334;48.696;2.114;2023-03-16T07:35:52;99606.45;;;7.35;55.66
12536;BME280;6334;48.696;2.114;2023-03-16T07:38:22;99602.26;;;7.43;55.78
12536;BME280;6334;48.696;2.114;2023-03-16T07:40:53;99600.15;;;7.37;55.58
12536;BME280;6334;48.696;2.114;2023-03-16T07:43:23;99600.03;;;7.44;56.37
12536;BME280;6334;48.696;2.114;2023-03-16T07:45:54;99600.36;;;7.44;56.54
12536;BME280;6334;48.696;2.114;2023-03-16T07:48:24;99600.86;;;7.44;56.42
12536;BME280;6334;48.696;2.114;2023-03-16T07:50:55;99607.98;;;7.26;56.95
12536;BME280;6334;48.696;2.114;2023-03-16T07:53:25;99610.42;;;7.63;57.12
12536;BME280;6334;48.696;2.114;2023-03-16T07:55:56;99616.27;;;7.55;56.80
12536;BME280;6334;48.696;2.114;2023-03-16T07:58:26;99618.23;;;7.72;56.39
12536;BME280;6334;48.696;2.114;2023-03-16T08:00:57;99625.62;;;7.70;55.95
12536;BME280;6334;48.696;2.114;2023-03-16T08:03:27;99621.23;;;7.77;56.05
12536;BME280;6334;48.696;2.114;2023-03-16T08:05:58;99617.70;;;7.73;56.21
12536;BME280;6334;48.696;2.114;2023-03-16T08:08:28;99617.23;;;7.85;55.95
12536;BME280;6334;48.696;2.114;2023-03-16T08:10:59;99620.05;;;7.57;57.43
12536;BME280;6334;48.696;2.114;2023-03-16T08:13:30;99616.73;;;7.81;56.07
12536;BME280;6334;48.696;2.114;2023-03-16T08:16:01;99623.62;;;7.91;56.07
12536;BME280;6334;48.696;2.114;2023-03-16T08:18:31;99627.20;;;7.91;56.04
12536;BME280;6334;48.696;2.114;2023-03-16T08:21:02;99623.80;;;8.10;55.46
12536;BME280;6334;48.696;2.114;2023-03-16T08:23:32;99616.58;;;7.92;56.69
12536;BME280;6334;48.696;2.114;2023-03-16T08:26:03;99615.48;;;7.96;56.31
12536;BME280;6334;48.696;2.114;2023-03-16T08:28:36;99611.16;;;7.97;56.92
12536;BME280;6334;48.696;2.114;2023-03-16T08:31:07;99606.23;;;8.03;56.80
12536;BME280;6334;48.696;2.114;2023-03-16T08:33:38;99607.56;;;7.90;56.85
12536;BME280;6334;48.696;2.114;2023-03-16T08:36:09;99607.41;;;8.27;56.19
12536;BME280;6334;48.696;2.114;2023-03-16T08:38:39;99607.27;;;8.05;56.78
12536;BME280;6334;48.696;2.114;2023-03-16T08:41:09;99605.70;;;8.14;56.07
12536;BME280;6334;48.696;2.114;2023-03-16T08:43:40;99602.64;;;8.03;56.70
12536;BME280;6334;48.696;2.114;2023-03-16T08:46:10;99603.94;;;8.09;56.78
12536;BME280;6334;48.696;2.114;2023-03-16T08:48:41;99599.64;;;8.33;56.67
12536;BME280;6334;48.696;2.114;2023-03-16T08:51:11;99600.08;;;8.51;56.48
12536;BME280;6334;48.696;2.114;2023-03-16T08:53:42;99597.80;;;8.62;55.92
12536;BME280;6334;48.696;2.114;2023-03-16T08:56:12;99603.52;;;8.63;55.04
12536;BME280;6334;48.696;2.114;2023-03-16T08:58:42;99597.91;;;8.59;55.61
12536;BME280;6334;48.696;2.114;2023-03-16T09:01:14;99596.44;;;8.87;55.48
12536;BME280;6334;48.696;2.114;2023-03-16T09:03:43;99607.75;;;8.70;54.96
12536;BME280;6334;48.696;2.114;2023-03-16T09:06:14;99604.17;;;9.05;54.89
12536;BME280;6334;48.696;2.114;2023-03-16T09:08:44;99607.58;;;9.10;54.21
12536;BME280;6334;48.696;2.114;2023-03-16T09:11:16;99606.07;;;9.07;54.08
12536;BME280;6334;48.696;2.114;2023-03-16T09:13:45;99604.50;;;9.31;54.55
12536;BME280;6334;48.696;2.114;2023-03-16T09:16:16;99604.39;;;9.55;53.73
12536;BME280;6334;48.696;2.114;2023-03-16T09:18:46;99594.48;;;9.58;54.04
12536;BME280;6334;48.696;2.114;2023-03-16T09:21:17;99596.45;;;9.53;53.55
12536;BME280;6334;48.696;2.114;2023-03-16T09:23:47;99588.35;;;9.72;53.94
12536;BME280;6334;48.696;2.114;2023-03-16T09:26:17;99587.70;;;9.62;52.67
12536;BME280;6334;48.696;2.114;2023-03-16T09:28:48;99585.52;;;9.62;53.37
12536;BME280;6334;48.696;2.114;2023-03-16T09:31:18;99580.36;;;9.69;53.37
12536;BME280;6334;48.696;2.114;2023-03-16T09:33:49;99582.16;;;9.91;54.05
12536;BME280;6334;48.696;2.114;2023-03-16T09:36:19;99577.15;;;9.87;54.07
12536;BME280;6334;48.696;2.114;2023-03-16T09:38:51;99573.36;;;9.95;53.47
12536;BME280;6334;48.696;2.114;2023-03-16T09:44:32;99573.47;;;10.17;52.59
12536;BME280;6334;48.696;2.114;2023-03-16T09:47:00;99567.20;;;10.21;52.11
12536;BME280;6334;48.696;2.114;2023-03-16T09:49:32;99566.02;;;10.06;53.20
12536;BME280;6334;48.696;2.114;2023-03-16T09:52:07;99573.19;;;10.24;54.18
12536;BME280;6334;48.696;2.114;2023-03-16T09:57:25;99574.74;;;10.51;52.99
12536;BME280;6334;48.696;2.114;2023-03-16T09:59:58;99572.05;;;10.48;52.53
12536;BME280;6334;48.696;2.114;2023-03-16T10:05:11;99572.72;;;10.73;51.88
12536;BME280;6334;48.696;2.114;2023-03-16T10:14:07;99568.96;;;10.78;53.39
12536;BME280;6334;48.696;2.114;2023-03-16T10:16:36;99568.00;;;10.96;52.65
12536;BME280;6334;48.696;2.114;2023-03-16T10:19:16;99572.25;;;10.83;52.54
12536;BME280;6334;48.696;2.114;2023-03-16T10:21:44;99575.11;;;11.05;52.90
12536;BME280;6334;48.696;2.114;2023-03-16T10:24:38;99570.30;;;11.09;52.24
12536;BME280;6334;48.696;2.114;2023-03-16T10:27:05;99561.39;;;11.17;52.26
12536;BME280;6334;48.696;2.114;2023-03-16T10:29:35;99557.76;;;11.48;52.47
12536;BME280;6334;48.696;2.114;2023-03-16T10:32:13;99552.10;;;11.44;52.89
12536;BME280;6334;48.696;2.114;2023-03-16T10:34:43;99557.52;;;11.59;51.87
12536;BME280;6334;48.696;2.114;2023-03-16T10:37:13;99550.41;;;11.63;51.22
12536;BME280;6334;48.696;2.114;2023-03-16T10:39:43;99550.38;;;11.36;50.26
12536;BME280;6334;48.696;2.114;2023-03-16T10:42:18;99542.00;;;11.80;51.53
12536;BME280;6334;48.696;2.114;2023-03-16T10:44:47;99545.82;;;11.99;51.05
12536;BME280;6334;48.696;2.114;2023-03-16T10:47:18;99543.94;;;11.73;50.40
12536;BME280;6334;48.696;2.114;2023-03-16T10:49:48;99538.78;;;11.79;51.35
12536;BME280;6334;48.696;2.114;2023-03-16T10:52:39;99538.38;;;11.90;51.56
12536;BME280;6334;48.696;2.114;2023-03-16T10:55:16;99530.73;;;11.95;51.41
12536;BME280;6334;48.696;2.114;2023-03-16T10:57:53;99525.89;;;11.99;50.71
12536;BME280;6334;48.696;2.114;2023-03-16T11:00:36;99519.09;;;11.97;49.76
12536;BME280;6334;48.696;2.114;2023-03-16T11:03:17;99519.66;;;11.95;51.99
12536;BME280;6334;48.696;2.114;2023-03-16T11:05:42;99527.38;;;12.21;50.98
12536;BME280;6334;48.696;2.114;2023-03-16T11:08:14;99524.80;;;12.12;49.89
12536;BME280;6334;48.696;2.114;2023-03-16T11:10:52;99519.61;;;12.25;50.88
12536;BME280;6334;48.696;2.114;2023-03-16T11:13:19;99517.89;;;12.21;50.06
12536;BME280;6334;48.696;2.114;2023-03-16T11:15:56;99513.13;;;12.21;51.60
12536;BME280;6334;48.696;2.114;2023-03-16T11:18:36;99510.61;;;12.42;49.26
12536;BME280;6334;48.696;2.114;2023-03-16T11:21:07;99501.19;;;12.31;48.49
12536;BME280;6334;48.696;2.114;2023-03-16T11:23:36;99490.41;;;12.47;50.34
12536;BME280;6334;48.696;2.114;2023-03-16T11:26:06;99487.62;;;12.73;49.49
12536;BME280;6334;48.696;2.114;2023-03-16T11:28:37;99484.19;;;12.57;48.63
12536;BME280;6334;48.696;2.114;2023-03-16T11:31:32;99481.40;;;12.52;49.28
12536;BME280;6334;48.696;2.114;2023-03-16T11:33:57;99475.36;;;12.73;49.36
12536;BME280;6334;48.696;2.114;2023-03-16T11:47:47;99455.72;;;12.88;48.41
12536;BME280;6334;48.696;2.114;2023-03-16T11:52:55;99465.23;;;13.23;48.71
12536;BME280;6334;48.696;2.114;2023-03-16T11:55:35;99459.41;;;13.01;48.15
12536;BME280;6334;48.696;2.114;2023-03-16T11:58:15;99453.78;;;13.15;49.34
12536;BME280;6334;48.696;2.114;2023-03-16T12:03:43;99457.02;;;13.21;48.88
12536;BME280;6334;48.696;2.114;2023-03-16T12:14:23;99449.33;;;13.53;46.90
12536;BME280;6334;48.696;2.114;2023-03-16T12:24:58;99428.12;;;13.72;47.43
12536;BME280;6334;48.696;2.114;2023-03-16T12:27:30;99424.33;;;13.60;48.87
12536;BME280;6334;48.696;2.114;2023-03-16T12:30:02;99416.58;;;13.69;46.94
12536;BME280;6334;48.696;2.114;2023-03-16T12:35:30;99406.87;;;13.77;47.71
12536;BME280;6334;48.696;2.114;2023-03-16T12:38:10;99387.09;;;13.72;47.49
12536;BME280;6334;48.696;2.114;2023-03-16T12:49:06;99387.52;;;13.97;47.92
12536;BME280;6334;48.696;2.114;2023-03-16T12:51:37;99387.27;;;13.90;47.77
12536;BME280;6334;48.696;2.114;2023-03-16T12:54:22;99384.55;;;13.89;46.64
12536;BME280;6334;48.696;2.114;2023-03-16T12:56:52;99373.31;;;13.95;48.22
12536;BME280;6334;48.696;2.114;2023-03-16T12:59:22;99373.75;;;13.99;46.81
12536;BME280;6334;48.696;2.114;2023-03-16T13:01:56;99369.88;;;13.95;48.18
12536;BME280;6334;48.696;2.114;2023-03-16T13:04:37;99364.23;;;14.23;47.37
12536;BME280;6334;48.696;2.114;2023-03-16T13:07:05;99357.33;;;14.18;46.40
12536;BME280;6334;48.696;2.114;2023-03-16T13:09:35;99344.39;;;14.09;46.80
12536;BME280;6334;48.696;2.114;2023-03-16T13:12:05;99336.65;;;14.11;47.10
12536;BME280;6334;48.696;2.114;2023-03-16T13:14:38;99337.27;;;14.17;46.29
12536;BME280;6334;48.696;2.114;2023-03-16T13:20:02;99319.62;;;14.36;45.64
12536;BME280;6334;48.696;2.114;2023-03-16T13:22:41;99326.79;;;14.46;45.83
12536;BME280;6334;48.696;2.114;2023-03-16T13:25:12;99325.04;;;14.33;46.04
12536;BME280;6334;48.696;2.114;2023-03-16T13:27:42;99318.66;;;14.38;44.94
12536;BME280;6334;48.696;2.114;2023-03-16T13:30:29;99318.62;;;14.30;43.90
12536;BME280;6334;48.696;2.114;2023-03-16T13:33:44;99312.92;;;14.49;46.33
12536;BME280;6334;48.696;2.114;2023-03-16T13:35:29;99311.18;;;14.36;44.89
12536;BME280;6334;48.696;2.114;2023-03-16T13:38:03;99313.40;;;14.42;44.53
12536;BME280;6334;48.696;2.114;2023-03-16T13:40:32;99309.08;;;14.45;44.34
12536;BME280;6334;48.696;2.114;2023-03-16T13:43:03;99307.33;;;14.49;43.07
12536;BME280;6334;48.696;2.114;2023-03-16T13:45:36;99303.20;;;14.61;43.16
12536;BME280;6334;48.696;2.114;2023-03-16T13:48:04;99303.20;;;14.57;44.69
12536;BME280;6334;48.696;2.114;2023-03-16T13:50:34;99306.48;;;14.52;44.61
12536;BME280;6334;48.696;2.114;2023-03-16T13:53:09;99305.38;;;14.71;45.82
12536;BME280;6334;48.696;2.114;2023-03-16T13:55:36;99303.55;;;14.67;46.13
12536;BME280;6334;48.696;2.114;2023-03-16T13:58:12;99294.45;;;14.84;44.34
12536;BME280;6334;48.696;2.114;2023-03-16T14:00:36;99289.82;;;14.83;44.89
12536;BME280;6334;48.696;2.114;2023-03-16T14:03:16;99291.34;;;14.81;43.66
12536;BME280;6334;48.696;2.114;2023-03-16T14:05:46;99285.42;;;14.82;44.41
12536;BME280;6334;48.696;2.114;2023-03-16T14:08:17;99284.69;;;14.82;43.29
12536;BME280;6334;48.696;2.114;2023-03-16T14:10:47;99281.52;;;14.74;44.69
12536;BME280;6334;48.696;2.114;2023-03-16T14:16:02;99283.56;;;14.79;44.51
12536;BME280;6334;48.696;2.114;2023-03-16T14:18:34;99279.94;;;14.77;44.79
12536;BME280;6334;48.696;2.114;2023-03-16T14:21:13;99285.80;;;14.77;45.08
12536;BME280;6334;48.696;2.114;2023-03-16T14:23:41;99278.92;;;14.76;43.76
12536;BME280;6334;48.696;2.114;2023-03-16T14:26:12;99276.65;;;14.82;44.56
12536;BME280;6334;48.696;2.114;2023-03-16T14:29:28;99275.74;;;14.82;43.79
12536;BME280;6334;48.696;2.114;2023-03-16T14:31:17;99276.82;;;14.78;44.56
12536;BME280;6334;48.696;2.114;2023-03-16T14:33:43;99277.91;;;14.86;43.84
12536;BME280;6334;48.696;2.114;2023-03-16T14:36:14;99279.16;;;14.94;44.10
12536;BME280;6334;48.696;2.114;2023-03-16T14:38:47;99275.67;;;14.99;43.96
12536;BME280;6334;48.696;2.114;2023-03-16T14:41:24;99268.89;;;14.79;43.46
12536;BME280;6334;48.696;2.114;2023-03-16T14:43:56;99262.73;;;14.80;44.96
12536;BME280;6334;48.696;2.114;2023-03-16T14:46:37;99265.33;;;14.89;45.08
12536;BME280;6334;48.696;2.114;2023-03-16T14:49:13;99267.41;;;14.95;45.04
12536;BME280;6334;48.696;2.114;2023-03-16T14:51:37;99263.05;;;14.95;43.36
12536;BME280;6334;48.696;2.114;2023-03-16T14:54:14;99258.48;;;14.86;43.03